Time;durP1;ratioP1;P1;durP2;ratioP2;P2;SDS_P1;SDS_P2;PMS_P1;PMS_P2;Temp;Humidity;BMP_temperature;BMP_pressure;BME280_temperature;BME280_humidity;BME280_pressure;Samples;Min_cycle;Max_cycle;Signal;HPM_P1;HPM_P2
2021/04/27 00:00:23;;;;;;;6.93;2.75;;;10.10;47.40;;;;;;5095157;28;20126;-79
2021/04/27 00:02:50;;;;;;;6.30;2.70;;;9.90;47.60;;;;;;5094546;28;20143;-80
2021/04/27 00:05:18;;;;;;;4.57;2.83;;;9.90;47.50;;;;;;5094061;28;20075;-79
2021/04/27 00:07:45;;;;;;;7.20;3.10;;;9.80;47.20;;;;;;5095187;28;20139;-79
2021/04/27 00:10:15;;;;;;;4.68;2.55;;;9.80;47.40;;;;;;5094893;28;20230;-79
2021/04/27 00:12:43;;;;;;;4.72;2.63;;;9.80;47.30;;;;;;5094722;28;20087;-79
2021/04/27 00:15:13;;;;;;;5.95;3.08;;;9.70;46.70;;;;;;5094852;28;20067;-79
2021/04/27 00:17:40;;;;;;;6.22;2.92;;;9.70;46.50;;;;;;5094934;28;20102;-79
2021/04/27 00:20:08;;;;;;;5.47;2.60;;;9.60;46.20;;;;;;5094995;28;20574;-79
2021/04/27 00:22:35;;;;;;;5.88;2.80;;;9.60;46.00;;;;;;5094596;28;20131;-80
2021/04/27 00:25:02;;;;;;;5.70;2.47;;;9.50;45.50;;;;;;5095258;28;20062;-81
2021/04/27 00:27:29;;;;;;;5.82;2.85;;;9.50;45.80;;;;;;5095008;28;20127;-80
2021/04/27 00:29:56;;;;;;;5.30;2.67;;;9.40;46.10;;;;;;5094573;28;20048;-79
2021/04/27 00:32:23;;;;;;;5.78;2.67;;;9.60;45.70;;;;;;5094700;28;20130;-79
2021/04/27 00:34:51;;;;;;;6.30;2.60;;;9.50;45.60;;;;;;5094282;28;20071;-78
2021/04/27 00:37:17;;;;;;;5.20;2.72;;;9.40;45.30;;;;;;5109846;28;20054;-79
2021/04/27 00:39:44;;;;;;;4.82;2.58;;;9.40;46.00;;;;;;5094600;28;20078;-80
2021/04/27 00:42:11;;;;;;;5.10;2.67;;;9.50;45.40;;;;;;5094334;28;20525;-79
2021/04/27 00:44:38;;;;;;;4.70;2.40;;;9.50;45.70;;;;;;5094184;28;20502;-79
2021/04/27 00:47:05;;;;;;;5.80;2.45;;;9.40;45.80;;;;;;5094407;28;20147;-79
2021/04/27 00:49:32;;;;;;;5.32;2.80;;;9.50;46.20;;;;;;5093876;28;20516;-80
2021/04/27 00:51:59;;;;;;;5.22;2.30;;;9.50;45.70;;;;;;5094422;28;20146;-80
2021/04/27 00:54:25;;;;;;;8.45;2.55;;;9.50;46.10;;;;;;5094341;28;20054;-80
2021/04/27 00:56:52;;;;;;;7.43;2.63;;;9.50;45.90;;;;;;5093980;28;20612;-79
2021/04/27 00:59:18;;;;;;;5.80;2.47;;;9.40;45.90;;;;;;5092520;28;20118;-81
2021/04/27 01:01:46;;;;;;;4.72;2.35;;;9.40;46.00;;;;;;5093599;28;20087;-79
2021/04/27 01:04:13;;;;;;;5.13;2.42;;;9.40;46.20;;;;;;5093407;28;20093;-79
2021/04/27 01:06:40;;;;;;;4.75;2.53;;;9.50;45.90;;;;;;5094733;28;20105;-79
2021/04/27 01:09:14;;;;;;;5.88;2.70;;;9.40;45.80;;;;;;5094881;28;20080;-79
2021/04/27 01:11:49;;;;;;;6.25;2.25;;;9.40;46.10;;;;;;5094383;28;20472;-79
2021/04/27 01:14:27;;;;;;;6.38;2.97;;;9.30;46.30;;;;;;5094189;28;20127;-79
2021/04/27 01:17:00;;;;;;;6.35;2.65;;;9.40;46.30;;;;;;5093919;28;20078;-80
2021/04/27 01:19:41;;;;;;;5.20;2.55;;;9.30;45.90;;;;;;5094226;28;20095;-80
2021/04/27 01:22:11;;;;;;;5.15;2.78;;;9.30;46.30;;;;;;5078484;28;20476;-79
2021/04/27 01:24:46;;;;;;;6.10;2.55;;;9.20;46.60;;;;;;5094273;28;20126;-78
2021/04/27 01:27:14;;;;;;;5.55;2.33;;;9.20;46.50;;;;;;5093831;28;20390;-80
2021/04/27 01:29:41;;;;;;;5.75;2.45;;;9.00;46.70;;;;;;5093716;28;20091;-80
2021/04/27 01:32:08;;;;;;;5.50;2.72;;;9.10;46.70;;;;;;5094184;28;20050;-79
2021/04/27 01:34:38;;;;;;;5.25;2.33;;;9.10;46.80;;;;;;5093682;28;20083;-80
2021/04/27 01:37:09;;;;;;;4.88;2.30;;;8.90;48.00;;;;;;5094065;28;20131;-80
2021/04/27 01:39:37;;;;;;;4.72;2.35;;;8.90;48.10;;;;;;5093347;28;20124;-80
2021/04/27 01:42:07;;;;;;;5.70;2.30;;;8.90;47.70;;;;;;5093587;28;20082;-79
2021/04/27 01:44:37;;;;;;;4.30;2.58;;;8.80;47.70;;;;;;5093955;28;20556;-78
2021/04/27 01:47:07;;;;;;;5.35;2.50;;;8.90;47.90;;;;;;5093940;28;20516;-79
2021/04/27 01:49:35;;;;;;;4.55;2.17;;;8.80;47.80;;;;;;5093659;28;20090;-79
2021/04/27 01:52:02;;;;;;;4.90;2.42;;;8.90;48.50;;;;;;5093305;28;20071;-80
2021/04/27 01:54:30;;;;;;;5.03;2.50;;;8.80;47.90;;;;;;5093654;28;20080;-78
2021/04/27 01:56:58;;;;;;;4.90;2.55;;;8.90;47.90;;;;;;5093295;28;20143;-79
2021/04/27 01:59:24;;;;;;;5.72;2.20;;;8.80;47.70;;;;;;5093438;28;20103;-79
2021/04/27 02:01:52;;;;;;;4.28;2.30;;;8.80;47.80;;;;;;5093377;28;20545;-78
2021/04/27 02:04:21;;;;;;;4.75;2.70;;;8.80;48.40;;;;;;5093406;28;20067;-78
2021/04/27 02:06:48;;;;;;;5.68;2.25;;;8.80;48.20;;;;;;5093330;28;20048;-78
2021/04/27 02:09:16;;;;;;;5.18;2.20;;;8.80;48.70;;;;;;5093534;28;20084;-78
2021/04/27 02:11:48;;;;;;;5.00;2.50;;;8.60;48.60;;;;;;5093090;28;20079;-81
2021/04/27 02:14:15;;;;;;;4.18;2.28;;;8.60;50.80;;;;;;5092364;28;20147;-78
2021/04/27 02:16:48;;;;;;;4.53;2.35;;;8.60;50.40;;;;;;5092968;28;20075;-78
2021/04/27 02:19:16;;;;;;;5.50;2.40;;;8.60;49.30;;;;;;5092802;28;20433;-79
2021/04/27 02:21:43;;;;;;;5.03;2.20;;;8.60;49.20;;;;;;5092928;28;20558;-80
2021/04/27 02:24:12;;;;;;;4.75;2.30;;;8.50;50.70;;;;;;5093122;28;20125;-80
2021/04/27 02:26:40;;;;;;;6.95;2.33;;;8.50;51.40;;;;;;5095401;28;20524;-81
2021/04/27 02:29:09;;;;;;;4.55;2.40;;;8.50;52.60;;;;;;5096797;28;20044;-79
2021/04/27 02:31:36;;;;;;;4.43;2.30;;;8.50;52.10;;;;;;5092944;28;20126;-79
2021/04/27 02:34:05;;;;;;;4.28;2.10;;;8.40;53.10;;;;;;5093609;28;20474;-79
2021/04/27 02:36:37;;;;;;;5.85;2.70;;;8.30;53.00;;;;;;5093228;28;20078;-80
2021/04/27 02:39:06;;;;;;;5.68;2.45;;;8.20;50.70;;;;;;5093456;28;20048;-79
2021/04/27 02:41:34;;;;;;;4.57;2.28;;;8.10;52.30;;;;;;5093679;28;20052;-79
2021/04/27 02:44:01;;;;;;;4.43;2.05;;;8.10;53.70;;;;;;5093421;28;20095;-79
2021/04/27 02:46:28;;;;;;;5.57;2.30;;;8.00;53.80;;;;;;5093936;28;20087;-78
2021/04/27 02:48:55;;;;;;;5.03;2.30;;;8.00;54.20;;;;;;5094065;28;20466;-79
2021/04/27 02:51:22;;;;;;;4.88;2.28;;;8.00;54.40;;;;;;5094359;28;20079;-79
2021/04/27 02:53:50;;;;;;;4.22;2.20;;;7.90;54.40;;;;;;5094392;28;20082;-80
2021/04/27 02:56:17;;;;;;;4.18;2.20;;;7.90;53.80;;;;;;5095155;28;20080;-79
2021/04/27 02:58:44;;;;;;;5.20;2.22;;;7.70;53.70;;;;;;5095015;28;20040;-80
2021/04/27 03:01:13;;;;;;;5.25;2.33;;;7.80;54.40;;;;;;5094547;28;20106;-79
2021/04/27 03:03:40;;;;;;;3.92;2.13;;;7.80;54.10;;;;;;5093332;28;20048;-79
2021/04/27 03:06:07;;;;;;;6.35;2.40;;;7.70;53.90;;;;;;5092859;28;20119;-79
2021/04/27 03:08:33;;;;;;;4.95;2.33;;;7.70;53.90;;;;;;5094196;28;20040;-79
2021/04/27 03:11:01;;;;;;;6.35;2.28;;;7.70;54.20;;;;;;5096148;28;20088;-79
2021/04/27 03:13:28;;;;;;;4.90;2.10;;;7.70;55.20;;;;;;5097195;28;20146;-80
2021/04/27 03:15:55;;;;;;;4.78;2.20;;;7.60;54.60;;;;;;5096695;28;20087;-79
2021/04/27 03:18:22;;;;;;;4.45;2.28;;;7.60;54.30;;;;;;5094195;28;20076;-79
2021/04/27 03:20:49;;;;;;;5.90;2.33;;;7.50;54.60;;;;;;5086979;28;20501;-81
2021/04/27 03:23:15;;;;;;;4.10;2.25;;;7.60;54.70;;;;;;5097803;28;20086;-80
2021/04/27 03:25:42;;;;;;;5.47;2.40;;;7.60;55.20;;;;;;5098829;28;20134;-80
2021/04/27 03:28:10;;;;;;;6.68;2.40;;;7.50;55.50;;;;;;5101597;28;20036;-79
2021/04/27 03:30:37;;;;;;;7.43;2.75;;;7.50;55.70;;;;;;5099616;28;20051;-80
2021/04/27 03:33:04;;;;;;;6.25;2.70;;;7.50;56.20;;;;;;5099858;28;20113;-79
2021/04/27 03:35:31;;;;;;;5.32;2.40;;;7.40;56.20;;;;;;5098289;28;20526;-79
2021/04/27 03:37:58;;;;;;;4.25;2.30;;;7.40;56.10;;;;;;5100809;28;20068;-79
2021/04/27 03:40:25;;;;;;;5.65;2.20;;;7.30;56.20;;;;;;5098797;28;20114;-78
2021/04/27 03:42:53;;;;;;;4.20;2.55;;;7.40;56.50;;;;;;5095630;28;20052;-80
2021/04/27 03:45:34;;;;;;;6.25;2.97;;;7.30;56.80;;;;;;5094153;28;20147;-79
2021/04/27 03:48:02;;;;;;;4.50;2.20;;;7.40;56.60;;;;;;5094185;28;20040;-80
2021/04/27 03:50:29;;;;;;;4.70;2.33;;;7.20;56.20;;;;;;5094268;28;20131;-79
2021/04/27 03:52:55;;;;;;;4.20;2.03;;;7.30;56.50;;;;;;5094053;28;20079;-80
2021/04/27 03:55:23;;;;;;;4.03;2.10;;;7.30;57.20;;;;;;5093892;28;20088;-81
2021/04/27 03:57:49;;;;;;;5.68;2.20;;;7.30;57.00;;;;;;5093332;28;20080;-79
2021/04/27 04:00:17;;;;;;;4.82;2.50;;;7.20;57.70;;;;;;5094018;28;20065;-79
2021/04/27 04:02:45;;;;;;;4.70;2.35;;;7.20;57.70;;;;;;5095382;28;20127;-80
2021/04/27 04:05:13;;;;;;;4.05;2.08;;;7.20;57.80;;;;;;5095884;28;20047;-81
2021/04/27 04:07:40;;;;;;;4.75;2.20;;;7.20;57.50;;;;;;5095608;28;20088;-80
2021/04/27 04:10:10;;;;;;;4.57;2.30;;;7.20;58.40;;;;;;5095707;28;20071;-78
2021/04/27 04:12:38;;;;;;;5.00;2.45;;;7.10;58.40;;;;;;5095548;28;20072;-80
2021/04/27 04:15:08;;;;;;;4.63;2.72;;;7.10;58.40;;;;;;5094458;28;20127;-79
2021/04/27 04:17:35;;;;;;;4.88;2.38;;;7.00;58.30;;;;;;5095302;28;20055;-80
2021/04/27 04:20:04;;;;;;;5.22;2.05;;;7.00;58.40;;;;;;5095352;28;20543;-79
2021/04/27 04:22:30;;;;;;;5.85;2.85;;;6.90;59.00;;;;;;5095367;28;20071;-79
2021/04/27 04:24:57;;;;;;;4.68;2.33;;;6.80;59.20;;;;;;5095394;28;20088;-79
2021/04/27 04:27:24;;;;;;;4.50;2.25;;;6.80;58.20;;;;;;5095475;28;20083;-78
2021/04/27 04:29:50;;;;;;;6.70;2.80;;;6.80;58.80;;;;;;5095011;28;20466;-78
2021/04/27 04:32:17;;;;;;;5.30;2.42;;;6.70;59.20;;;;;;5095178;28;20486;-79
2021/04/27 04:34:44;;;;;;;6.15;2.67;;;6.70;58.90;;;;;;5094821;28;20087;-79
2021/04/27 04:37:11;;;;;;;4.88;2.40;;;6.50;58.20;;;;;;5095225;28;20127;-80
2021/04/27 04:39:38;;;;;;;5.55;2.75;;;6.50;58.00;;;;;;5095181;28;20076;-80
2021/04/27 04:42:05;;;;;;;5.72;2.50;;;6.40;58.30;;;;;;5094705;28;20048;-79
2021/04/27 04:44:33;;;;;;;6.00;2.80;;;6.40;59.10;;;;;;5095031;28;20097;-79
2021/04/27 04:46:59;;;;;;;5.13;2.50;;;6.30;59.90;;;;;;5094594;28;20161;-79
2021/04/27 04:49:26;;;;;;;6.15;2.50;;;6.40;60.30;;;;;;5094440;28;20497;-80
2021/04/27 04:51:54;;;;;;;5.22;2.60;;;6.50;59.80;;;;;;5094525;28;20130;-79
2021/04/27 04:54:22;;;;;;;6.85;2.80;;;6.60;60.00;;;;;;5094735;28;20086;-80
2021/04/27 04:56:49;;;;;;;5.40;2.65;;;6.60;59.80;;;;;;5094511;28;20552;-79
2021/04/27 04:59:16;;;;;;;5.28;2.63;;;6.70;59.70;;;;;;5094649;28;20438;-83
2021/04/27 05:01:43;;;;;;;5.82;2.63;;;6.60;59.70;;;;;;5091037;28;20056;-82
2021/04/27 05:04:10;;;;;;;5.65;2.63;;;6.70;60.40;;;;;;5094399;28;20501;-81
2021/04/27 05:06:39;;;;;;;6.63;2.58;;;6.80;59.60;;;;;;5095803;28;20562;-81
2021/04/27 05:09:08;;;;;;;6.22;2.72;;;6.80;59.80;;;;;;5090093;28;20052;-80
2021/04/27 05:11:36;;;;;;;5.40;2.47;;;6.80;60.00;;;;;;5085065;28;20083;-79
2021/04/27 05:14:03;;;;;;;6.10;2.63;;;6.80;60.10;;;;;;5074613;28;20076;-80
2021/04/27 05:16:31;;;;;;;5.40;2.35;;;6.80;60.50;;;;;;5074372;28;20072;-79
2021/04/27 05:18:59;;;;;;;6.25;2.58;;;6.80;61.30;;;;;;5070984;28;20043;-78
2021/04/27 05:21:26;;;;;;;6.63;2.60;;;6.90;61.70;;;;;;5073661;28;20490;-79
2021/04/27 05:23:53;;;;;;;5.75;2.40;;;6.90;61.20;;;;;;5074576;28;20143;-79
2021/04/27 05:26:20;;;;;;;4.95;2.60;;;6.90;60.60;;;;;;5074345;28;20068;-80
2021/04/27 05:28:48;;;;;;;5.65;2.60;;;7.00;60.90;;;;;;5080933;28;20135;-80
2021/04/27 05:31:14;;;;;;;5.82;2.63;;;7.00;61.60;;;;;;5076417;28;20083;-80
2021/04/27 05:33:41;;;;;;;7.75;2.88;;;7.00;61.60;;;;;;5074363;28;20557;-80
2021/04/27 05:36:09;;;;;;;5.10;2.60;;;7.10;61.60;;;;;;5078096;28;20044;-80
2021/04/27 05:38:35;;;;;;;5.18;2.40;;;7.20;61.40;;;;;;5085850;28;20102;-80
2021/04/27 05:41:02;;;;;;;8.25;2.70;;;7.20;60.90;;;;;;5074082;28;20059;-80
2021/04/27 05:43:29;;;;;;;5.97;2.40;;;7.30;61.30;;;;;;5073897;28;20083;-79
2021/04/27 05:45:56;;;;;;;4.45;2.38;;;7.40;61.80;;;;;;5074705;28;20133;-80
2021/04/27 05:48:24;;;;;;;5.70;2.50;;;7.40;62.10;;;;;;5080292;28;20545;-81
2021/04/27 05:50:50;;;;;;;5.53;2.30;;;7.50;61.00;;;;;;5072703;28;20101;-79
2021/04/27 05:53:17;;;;;;;6.25;2.60;;;7.50;61.30;;;;;;5073923;28;20083;-79
2021/04/27 05:55:44;;;;;;;5.68;2.80;;;7.60;61.30;;;;;;5073173;28;20098;-80
2021/04/27 05:58:11;;;;;;;6.22;2.63;;;7.50;61.60;;;;;;5086642;28;20123;-81
2021/04/27 06:00:38;;;;;;;6.80;2.60;;;7.60;62.00;;;;;;5074265;28;20045;-80
2021/04/27 06:03:07;;;;;;;4.88;2.75;;;7.70;62.10;;;;;;5073418;28;20136;-82
2021/04/27 06:05:33;;;;;;;5.47;2.60;;;7.70;61.30;;;;;;5091866;28;20127;-78
2021/04/27 06:08:00;;;;;;;8.07;3.08;;;7.80;61.20;;;;;;5093334;28;20148;-81
2021/04/27 06:10:27;;;;;;;6.38;3.13;;;7.80;60.90;;;;;;5093932;28;20097;-85
2021/04/27 06:12:53;;;;;;;6.00;3.05;;;7.90;60.30;;;;;;5094138;28;20101;-80
2021/04/27 06:15:20;;;;;;;5.88;3.20;;;7.90;59.20;;;;;;5089564;28;20055;-80
2021/04/27 06:17:47;;;;;;;6.90;2.72;;;7.90;59.80;;;;;;5074801;28;20063;-79
2021/04/27 06:20:16;;;;;;;6.32;3.03;;;8.00;60.20;;;;;;5090036;28;20036;-80
2021/04/27 06:22:43;;;;;;;5.57;2.83;;;8.10;60.30;;;;;;5078701;28;20052;-80
2021/04/27 06:25:12;;;;;;;6.65;2.80;;;8.20;59.10;;;;;;5082295;28;20127;-80
2021/04/27 06:27:39;;;;;;;5.93;3.15;;;8.20;59.10;;;;;;5077995;28;20083;-80
2021/04/27 06:30:09;;;;;;;6.57;2.88;;;8.30;59.80;;;;;;5074123;28;20091;-80
2021/04/27 06:32:38;;;;;;;6.82;2.97;;;8.30;58.70;;;;;;5086350;28;20104;-80
2021/04/27 06:35:06;;;;;;;6.60;3.42;;;8.40;58.60;;;;;;5076017;28;20087;-81
2021/04/27 06:37:34;;;;;;;7.03;3.00;;;8.40;58.80;;;;;;5093449;28;20468;-80
2021/04/27 06:40:01;;;;;;;6.07;2.95;;;8.40;59.00;;;;;;5091667;28;20128;-80
2021/04/27 06:42:28;;;;;;;7.43;3.40;;;8.50;58.90;;;;;;5084382;28;20084;-79
2021/04/27 06:44:55;;;;;;;7.65;3.50;;;8.60;59.20;;;;;;5090176;28;20478;-80
2021/04/27 06:47:22;;;;;;;8.52;3.67;;;8.50;59.40;;;;;;5083618;28;20098;-78
2021/04/27 06:49:49;;;;;;;6.78;3.45;;;8.70;58.90;;;;;;5074172;28;20072;-79
2021/04/27 06:52:16;;;;;;;7.70;3.63;;;8.80;59.10;;;;;;5075391;28;20086;-79
2021/04/27 06:54:44;;;;;;;7.15;3.83;;;8.80;58.50;;;;;;5093316;28;20051;-80
2021/04/27 06:57:12;;;;;;;8.48;4.53;;;8.90;58.90;;;;;;5098986;28;20086;-79
2021/04/27 06:59:39;;;;;;;9.02;4.13;;;8.90;58.60;;;;;;5090567;28;20081;-77
2021/04/27 07:02:06;;;;;;;8.52;4.65;;;9.00;58.80;;;;;;5089411;28;22011;-80
2021/04/27 07:04:35;;;;;;;12.23;5.32;;;9.00;58.50;;;;;;5086972;28;20071;-79
2021/04/27 07:07:02;;;;;;;10.20;5.32;;;9.00;58.80;;;;;;5084091;28;20437;-78
2021/04/27 07:09:29;;;;;;;12.70;6.07;;;9.10;58.60;;;;;;5077438;28;20140;-80
2021/04/27 07:11:58;;;;;;;9.85;5.35;;;9.10;58.50;;;;;;5091807;28;20086;-81
2021/04/27 07:14:25;;;;;;;10.55;5.88;;;9.20;58.70;;;;;;5077087;28;20052;-80
2021/04/27 07:16:52;;;;;;;9.45;4.82;;;9.30;58.60;;;;;;5086763;28;20126;-80
2021/04/27 07:19:19;;;;;;;8.90;5.20;;;9.30;58.10;;;;;;5096401;28;20048;-79
2021/04/27 07:21:46;;;;;;;9.23;4.40;;;9.30;59.00;;;;;;5096640;28;20080;-79
2021/04/27 07:24:13;;;;;;;10.45;5.07;;;9.40;58.00;;;;;;5092618;28;20087;-79
2021/04/27 07:26:42;;;;;;;10.75;5.47;;;9.40;58.10;;;;;;5089999;28;20083;-80
2021/04/27 07:29:09;;;;;;;13.95;5.72;;;9.50;58.20;;;;;;5096685;28;20048;-79
2021/04/27 07:31:37;;;;;;;8.88;4.50;;;9.60;58.10;;;;;;5092843;28;20041;-80
2021/04/27 07:34:04;;;;;;;8.85;4.28;;;9.70;58.30;;;;;;5080799;28;20525;-80
2021/04/27 07:36:31;;;;;;;7.00;3.70;;;9.70;58.10;;;;;;5077840;28;20135;-79
2021/04/27 07:38:58;;;;;;;5.72;3.33;;;9.80;58.40;;;;;;5080054;28;20410;-79
2021/04/27 07:41:25;;;;;;;8.15;4.20;;;9.90;57.90;;;;;;5105317;28;20051;-80
2021/04/27 07:43:52;;;;;;;6.82;3.90;;;10.00;56.60;;;;;;5095174;28;20044;-80
2021/04/27 07:46:19;;;;;;;8.35;4.10;;;10.00;56.50;;;;;;5091068;28;20577;-79
2021/04/27 07:48:46;;;;;;;6.70;4.22;;;10.10;56.40;;;;;;5096698;28;20110;-80
2021/04/27 07:51:14;;;;;;;6.78;3.85;;;10.20;56.40;;;;;;5096514;28;20506;-80
2021/04/27 07:53:41;;;;;;;7.55;4.00;;;10.20;56.20;;;;;;5097263;28;20052;-79
2021/04/27 07:56:08;;;;;;;9.52;4.20;;;10.30;56.00;;;;;;5096653;28;20080;-83
2021/04/27 07:58:35;;;;;;;7.13;4.10;;;10.30;55.90;;;;;;5095835;28;20048;-80
2021/04/27 08:01:03;;;;;;;6.95;3.42;;;10.40;55.90;;;;;;5096634;28;20462;-85
2021/04/27 08:03:30;;;;;;;7.25;4.05;;;10.50;56.10;;;;;;5080550;28;20136;-82
2021/04/27 08:05:57;;;;;;;6.15;3.75;;;10.50;55.70;;;;;;5095857;28;20076;-83
2021/04/27 08:08:24;;;;;;;9.18;4.40;;;10.60;55.80;;;;;;5083693;28;20052;-83
2021/04/27 08:10:51;;;;;;;9.52;4.40;;;10.60;56.10;;;;;;5076824;28;20044;-84
2021/04/27 08:13:18;;;;;;;10.35;4.63;;;10.70;55.90;;;;;;5084669;28;20131;-84
2021/04/27 08:15:46;;;;;;;7.85;3.75;;;10.90;55.00;;;;;;5096241;28;20098;-83
2021/04/27 08:18:13;;;;;;;6.88;3.80;;;10.90;54.60;;;;;;5090284;28;20153;-83
2021/04/27 08:20:40;;;;;;;7.93;4.95;;;11.00;55.80;;;;;;5082025;28;20136;-80
2021/04/27 08:23:07;;;;;;;9.32;4.68;;;11.10;53.80;;;;;;5080116;28;20137;-79
2021/04/27 08:25:36;;;;;;;9.40;4.60;;;11.10;54.00;;;;;;5087737;28;20080;-84
2021/04/27 08:28:03;;;;;;;7.45;4.25;;;11.20;53.70;;;;;;5076782;28;20421;-82
2021/04/27 08:30:30;;;;;;;7.10;4.32;;;11.20;53.90;;;;;;5085383;28;20083;-86
2021/04/27 08:32:57;;;;;;;8.48;4.97;;;11.30;53.40;;;;;;5081620;28;20354;-90
2021/04/27 08:35:24;;;;;;;7.78;4.10;;;11.40;53.00;;;;;;5087471;28;20074;-88
2021/04/27 08:37:52;;;;;;;7.90;4.40;;;11.40;53.10;;;;;;5080853;28;20083;-90
2021/04/27 08:40:19;;;;;;;7.28;3.75;;;11.50;52.90;;;;;;5080796;28;20044;-88
2021/04/27 08:42:49;;;;;;;7.82;4.22;;;11.50;52.60;;;;;;5077420;28;20492;-90
2021/04/27 08:45:18;;;;;;;7.10;4.05;;;11.60;52.30;;;;;;5076067;28;20128;-79
2021/04/27 08:47:47;;;;;;;8.82;4.72;;;11.60;52.30;;;;;;5076324;28;20048;-79
2021/04/27 08:50:16;;;;;;;7.80;4.07;;;11.70;52.80;;;;;;5076237;28;20442;-79
2021/04/27 08:52:43;;;;;;;7.80;4.35;;;11.80;52.30;;;;;;5080009;28;20427;-80
2021/04/27 08:55:13;;;;;;;8.70;4.53;;;11.80;52.20;;;;;;5075282;28;20072;-78
2021/04/27 08:57:41;;;;;;;8.05;4.68;;;12.00;51.60;;;;;;5075118;28;20109;-80
2021/04/27 09:00:11;;;;;;;9.02;4.43;;;12.00;51.70;;;;;;5082514;28;20044;-79
2021/04/27 09:02:39;;;;;;;8.77;4.70;;;12.00;51.20;;;;;;5075247;28;20079;-78
2021/04/27 09:05:21;;;;;;;6.57;4.18;;;12.10;51.10;;;;;;5076102;28;20079;-79
2021/04/27 09:07:48;;;;;;;8.38;4.45;;;12.10;51.00;;;;;;5074472;28;20087;-78
2021/04/27 09:10:19;;;;;;;9.15;5.00;;;12.20;50.90;;;;;;5078761;28;20579;-78
2021/04/27 09:12:52;;;;;;;8.73;4.70;;;12.20;50.80;;;;;;5076507;28;20051;-79
2021/04/27 09:15:31;;;;;;;8.50;4.90;;;12.30;50.20;;;;;;5073791;28;20548;-79
2021/04/27 09:17:58;;;;;;;9.77;5.18;;;12.30;50.20;;;;;;5079899;28;20186;-79
2021/04/27 09:20:25;;;;;;;8.85;5.30;;;12.40;50.10;;;;;;5075441;28;20049;-80
2021/04/27 09:23:08;;;;;;;9.80;5.28;;;12.40;50.60;;;;;;5090233;28;20080;-82
2021/04/27 09:25:36;;;;;;;7.82;4.63;;;12.50;50.90;;;;;;5081595;28;20049;-79
2021/04/27 09:28:03;;;;;;;8.75;4.93;;;12.60;50.70;;;;;;5074053;28;20131;-79
2021/04/27 09:30:31;;;;;;;8.90;5.20;;;12.70;50.40;;;;;;5078123;28;20052;-83
2021/04/27 09:33:01;;;;;;;11.18;5.40;;;12.70;49.90;;;;;;5089248;28;20075;-79
2021/04/27 09:35:35;;;;;;;6.47;4.40;;;12.80;50.00;;;;;;5082334;28;20059;-79
2021/04/27 09:38:15;;;;;;;8.98;5.05;;;12.90;49.50;;;;;;5086718;28;20123;-84
2021/04/27 09:40:55;;;;;;;8.07;4.93;;;12.90;49.10;;;;;;5083392;28;20620;-80
2021/04/27 09:43:26;;;;;;;9.45;4.90;;;13.00;48.80;;;;;;5095541;28;20052;-87
2021/04/27 09:45:55;;;;;;;12.30;6.70;;;13.10;48.60;;;;;;5094356;28;20063;-82
2021/04/27 09:48:38;;;;;;;8.93;4.93;;;13.10;47.90;;;;;;5094394;28;20048;-81
2021/04/27 09:51:22;;;;;;;11.90;5.32;;;13.10;48.10;;;;;;5094512;28;20044;-82
2021/04/27 09:53:54;;;;;;;11.88;6.35;;;13.30;48.10;;;;;;5077877;28;20048;-82
2021/04/27 09:56:41;;;;;;;8.45;5.38;;;13.40;46.70;;;;;;5081662;28;20113;-84
2021/04/27 09:59:13;;;;;;;11.23;5.57;;;13.40;47.10;;;;;;5081010;28;20050;-84
2021/04/27 10:01:44;;;;;;;7.50;4.65;;;13.50;47.60;;;;;;5090668;28;20044;-84
2021/04/27 10:04:11;;;;;;;7.40;4.40;;;13.50;47.00;;;;;;5079443;28;20485;-85
2021/04/27 10:06:41;;;;;;;9.40;5.13;;;13.60;46.90;;;;;;5090263;28;20144;-85
2021/04/27 10:09:10;;;;;;;7.28;4.47;;;13.70;47.10;;;;;;5085386;28;20050;-85
2021/04/27 10:11:37;;;;;;;10.38;5.20;;;13.80;46.60;;;;;;5094547;28;20087;-84
2021/04/27 10:14:07;;;;;;;11.30;5.22;;;13.80;47.00;;;;;;5094334;28;20060;-85
2021/04/27 10:16:36;;;;;;;7.40;5.00;;;13.90;46.00;;;;;;5078317;28;20048;-87
2021/04/27 10:19:04;;;;;;;9.10;5.85;;;13.90;45.40;;;;;;5089395;28;20478;-84
2021/04/27 10:21:33;;;;;;;11.35;7.00;;;14.00;45.60;;;;;;5074471;28;20051;-81
2021/04/27 10:24:01;;;;;;;10.32;5.40;;;14.10;44.90;;;;;;5074720;28;20496;-81
2021/04/27 10:26:31;;;;;;;10.02;5.55;;;14.10;45.00;;;;;;5079276;28;20051;-79
2021/04/27 10:29:07;;;;;;;10.15;4.75;;;14.20;45.30;;;;;;5083250;28;20414;-78
2021/04/27 10:31:37;;;;;;;10.02;5.65;;;14.20;44.30;;;;;;5082311;28;20040;-78
2021/04/27 10:34:09;;;;;;;6.95;4.53;;;14.30;44.10;;;;;;5094838;28;20458;-78
2021/04/27 10:36:39;;;;;;;9.63;5.63;;;14.40;44.50;;;;;;5105131;28;20039;-79
2021/04/27 10:39:08;;;;;;;9.88;6.00;;;14.40;43.60;;;;;;5109633;28;20047;-80
2021/04/27 10:41:52;;;;;;;8.65;4.70;;;14.40;44.30;;;;;;5108374;28;20044;-78
2021/04/27 10:44:22;;;;;;;9.10;5.20;;;14.50;44.50;;;;;;5103796;27;20047;-79
2021/04/27 10:47:00;;;;;;;8.00;5.40;;;14.50;44.30;;;;;;5104496;28;20051;-78
2021/04/27 10:49:37;;;;;;;8.93;5.20;;;14.70;44.50;;;;;;5101712;27;20157;-80
2021/04/27 10:52:06;;;;;;;9.35;5.57;;;14.70;44.30;;;;;;5099979;28;20073;-78
2021/04/27 10:54:39;;;;;;;10.75;5.05;;;14.80;43.00;;;;;;5098690;28;20052;-78
2021/04/27 10:57:18;;;;;;;8.82;5.45;;;14.90;43.80;;;;;;5108372;27;20406;-78
2021/04/27 11:00:02;;;;;;;8.48;5.40;;;15.00;43.50;;;;;;5101238;28;20047;-78
2021/04/27 11:02:30;;;;;;;11.25;5.43;;;15.00;43.00;;;;;;5095065;28;20478;-79
2021/04/27 11:05:01;;;;;;;9.85;5.10;;;15.00;43.20;;;;;;5100046;28;21606;-80
2021/04/27 11:07:37;;;;;;;9.75;5.85;;;15.10;42.90;;;;;;5100208;28;20094;-79
2021/04/27 11:10:32;;;;;;;7.82;5.00;;;15.20;42.60;;;;;;5102776;28;20049;-80
2021/04/27 11:13:12;;;;;;;8.80;4.75;;;15.20;42.30;;;;;;5107192;28;20048;-81
2021/04/27 11:15:42;;;;;;;8.88;5.53;;;15.30;41.30;;;;;;5092701;28;20135;-79
2021/04/27 11:18:15;;;;;;;9.55;5.63;;;15.40;41.80;;;;;;5093165;28;20048;-78
2021/04/27 11:21:12;;;;;;;7.03;4.13;;;15.50;41.60;;;;;;5091601;28;20051;-80
2021/04/27 11:23:53;;;;;;;8.23;5.13;;;15.60;41.20;;;;;;5091419;28;20052;-80
2021/04/27 11:26:54;;;;;;;9.02;4.35;;;15.70;41.00;;;;;;5084344;28;20409;-78
2021/04/27 11:29:25;;;;;;;6.57;4.30;;;15.80;41.60;;;;;;5089560;28;20055;-75
2021/04/27 11:31:55;;;;;;;7.13;3.97;;;15.90;42.00;;;;;;5092966;28;20055;-78
2021/04/27 11:34:23;;;;;;;7.93;4.85;;;16.00;41.40;;;;;;5097403;28;20131;-76
2021/04/27 11:36:51;;;;;;;8.73;5.32;;;16.10;40.60;;;;;;5097524;28;20047;-79
2021/04/27 11:39:21;;;;;;;8.32;4.40;;;16.30;40.00;;;;;;5098848;28;20062;-77
2021/04/27 11:41:50;;;;;;;8.95;5.32;;;16.30;39.70;;;;;;5079457;28;20049;-77
2021/04/27 11:44:20;;;;;;;7.30;4.43;;;16.40;39.30;;;;;;5093150;28;20056;-78
2021/04/27 11:47:01;;;;;;;6.97;4.32;;;16.40;39.20;;;;;;5098297;28;20135;-80
2021/04/27 11:49:53;;;;;;;8.80;5.20;;;16.50;39.30;;;;;;5101825;28;20577;-80
2021/04/27 11:52:45;;;;;;;7.18;4.25;;;16.60;38.80;;;;;;5089812;28;20478;-80
2021/04/27 11:55:20;;;;;;;8.60;5.00;;;16.60;38.80;;;;;;5092158;28;20044;-78
2021/04/27 11:57:53;;;;;;;9.63;4.82;;;16.70;37.90;;;;;;5092606;28;20052;-80
2021/04/27 12:00:26;;;;;;;9.10;5.22;;;16.80;38.10;;;;;;5091077;28;20071;-81
2021/04/27 12:02:55;;;;;;;12.68;6.10;;;16.90;38.10;;;;;;5095777;28;20529;-83
2021/04/27 12:05:22;;;;;;;8.43;5.28;;;17.00;37.40;;;;;;5090391;28;20083;-79
2021/04/27 12:07:49;;;;;;;6.40;4.40;;;17.00;38.00;;;;;;5095591;28;20080;-78
2021/04/27 12:10:16;;;;;;;6.80;4.28;;;17.10;36.90;;;;;;5094674;28;20496;-80
2021/04/27 12:12:47;;;;;;;7.28;4.20;;;17.20;37.10;;;;;;5095431;28;20447;-81
2021/04/27 12:15:14;;;;;;;6.72;4.00;;;17.30;36.50;;;;;;5095633;28;20390;-80
2021/04/27 12:17:41;;;;;;;8.20;5.03;;;17.40;35.80;;;;;;5095953;28;20071;-78
2021/04/27 12:20:16;;;;;;;7.25;4.90;;;17.60;35.60;;;;;;5095423;28;20055;-84
2021/04/27 12:22:49;;;;;;;6.38;4.47;;;17.60;34.90;;;;;;5091908;28;20044;-78
2021/04/27 12:25:26;;;;;;;9.30;4.28;;;17.70;35.50;;;;;;5096223;28;20083;-79
2021/04/27 12:28:01;;;;;;;6.03;4.13;;;17.80;35.50;;;;;;5090534;28;20052;-80
2021/04/27 12:30:29;;;;;;;7.15;4.38;;;18.00;35.10;;;;;;5090389;28;20101;-80
2021/04/27 12:33:10;;;;;;;7.28;4.35;;;18.00;34.50;;;;;;5095170;28;20052;-77
2021/04/27 12:35:39;;;;;;;7.57;4.47;;;18.20;34.20;;;;;;5095172;28;20059;-78
2021/04/27 12:38:10;;;;;;;7.60;4.20;;;18.30;35.10;;;;;;5090164;28;20041;-78
2021/04/27 12:40:40;;;;;;;7.97;4.28;;;18.40;34.50;;;;;;5095649;28;20144;-79
2021/04/27 12:43:10;;;;;;;5.32;3.40;;;18.50;33.90;;;;;;5095710;28;20077;-81
2021/04/27 12:45:48;;;;;;;6.22;3.70;;;18.50;34.30;;;;;;5096014;28;20569;-78
2021/04/27 12:48:17;;;;;;;7.90;3.95;;;18.80;32.80;;;;;;5096222;28;20139;-81
2021/04/27 12:50:48;;;;;;;7.18;4.22;;;18.90;33.00;;;;;;5097236;28;20551;-82
2021/04/27 12:53:15;;;;;;;6.03;3.50;;;19.10;33.50;;;;;;5094689;28;20087;-83
2021/04/27 12:55:53;;;;;;;7.43;3.67;;;19.10;32.80;;;;;;5096209;28;20425;-81
2021/04/27 12:58:25;;;;;;;5.20;3.33;;;19.20;32.80;;;;;;5094223;28;20123;-79
2021/04/27 13:00:57;;;;;;;6.43;3.55;;;19.40;33.10;;;;;;5093881;28;20051;-79
2021/04/27 13:03:27;;;;;;;6.03;3.70;;;19.50;32.60;;;;;;5094711;28;20506;-78